sensor_id;sensor_type;location;lat;lon;timestamp;P1;P2;P0
69349;PMS5003;64554;43.452;4.934;2023-05-07T00:00:54;10.40;10.40;6.80
69349;PMS5003;64554;43.452;4.934;2023-05-07T00:03:21;12.50;12.00;7.50
69349;PMS5003;64554;43.452;4.934;2023-05-07T00:05:48;12.25;12.25;8.25
69349;PMS5003;64554;43.452;4.934;2023-05-07T00:08:15;12.00;11.00;8.00
69349;PMS5003;64554;43.452;4.934;2023-05-07T00:10:44;10.40;10.40;7.00
69349;PMS5003;64554;43.452;4.934;2023-05-07T00:13:11;11.20;11.20;8.00
69349;PMS5003;64554;43.452;4.934;2023-05-07T00:15:37;11.50;11.50;7.75
69349;PMS5003;64554;43.452;4.934;2023-05-07T00:18:04;14.60;10.80;7.60
69349;PMS5003;64554;43.452;4.934;2023-05-07T00:20:30;15.50;14.50;9.25
69349;PMS5003;64554;43.452;4.934;2023-05-07T00:22:59;15.00;15.00;10.00
69349;PMS5003;64554;43.452;4.934;2023-05-07T00:25:26;17.75;15.75;9.75
69349;PMS5003;64554;43.452;4.934;2023-05-07T00:27:52;13.00;13.00;8.40
69349;PMS5003;64554;43.452;4.934;2023-05-07T00:30:18;12.00;12.00;9.00
69349;PMS5003;64554;43.452;4.934;2023-05-07T00:32:45;13.00;13.00;9.75
69349;PMS5003;64554;43.452;4.934;2023-05-07T00:35:12;12.25;12.25;9.00
69349;PMS5003;64554;43.452;4.934;2023-05-07T00:37:38;12.00;12.00;9.00
69349;PMS5003;64554;43.452;4.934;2023-05-07T00:40:05;14.25;14.25;10.00
69349;PMS5003;64554;43.452;4.934;2023-05-07T00:42:34;14.00;14.00;9.75
69349;PMS5003;64554;43.452;4.934;2023-05-07T00:45:01;15.40;14.20;8.60
69349;PMS5003;64554;43.452;4.934;2023-05-07T00:47:27;13.60;12.00;9.00
69349;PMS5003;64554;43.452;4.934;2023-05-07T00:49:54;16.00;16.00;8.00
69349;PMS5003;64554;43.452;4.934;2023-05-07T00:52:23;11.20;10.40;7.40
69349;PMS5003;64554;43.452;4.934;2023-05-07T00:54:51;15.00;13.50;9.00
69349;PMS5003;64554;43.452;4.934;2023-05-07T00:57:18;17.00;17.00;9.50
69349;PMS5003;64554;43.452;4.934;2023-05-07T00:59:45;10.00;9.00;7.00
69349;PMS5003;64554;43.452;4.934;2023-05-07T01:02:11;11.20;11.20;8.60
69349;PMS5003;64554;43.452;4.934;2023-05-07T01:04:38;18.80;15.00;9.00
69349;PMS5003;64554;43.452;4.934;2023-05-07T01:07:05;14.00;13.60;9.00
69349;PMS5003;64554;43.452;4.934;2023-05-07T01:09:32;11.00;11.00;8.50
69349;PMS5003;64554;43.452;4.934;2023-05-07T01:11:59;11.25;11.25;8.00
69349;PMS5003;64554;43.452;4.934;2023-05-07T01:14:25;10.20;10.20;6.80
69349;PMS5003;64554;43.452;4.934;2023-05-07T01:16:52;12.40;12.40;9.00
69349;PMS5003;64554;43.452;4.934;2023-05-07T01:19:19;12.00;12.00;8.50
69349;PMS5003;64554;43.452;4.934;2023-05-07T01:21:47;11.00;11.00;9.00
69349;PMS5003;64554;43.452;4.934;2023-05-07T01:24:14;11.60;11.60;7.00
69349;PMS5003;64554;43.452;4.934;2023-05-07T01:26:42;14.40;13.00;8.00
69349;PMS5003;64554;43.452;4.934;2023-05-07T01:29:08;11.00;11.00;8.60
69349;PMS5003;64554;43.452;4.934;2023-05-07T01:31:35;13.00;13.00;8.50
69349;PMS5003;64554;43.452;4.934;2023-05-07T01:34:03;8.50;8.50;5.75
69349;PMS5003;64554;43.452;4.934;2023-05-07T01:36:30;11.00;11.00;7.00
69349;PMS5003;64554;43.452;4.934;2023-05-07T01:38:58;11.00;10.00;8.00
69349;PMS5003;64554;43.452;4.934;2023-05-07T01:41:25;12.00;12.00;6.25
69349;PMS5003;64554;43.452;4.934;2023-05-07T01:43:52;13.00;12.00;7.00
69349;PMS5003;64554;43.452;4.934;2023-05-07T01:46:18;11.40;11.40;9.60
69349;PMS5003;64554;43.452;4.934;2023-05-07T01:48:45;12.00;12.00;7.60
69349;PMS5003;64554;43.452;4.934;2023-05-07T01:51:12;12.00;12.00;8.00
69349;PMS5003;64554;43.452;4.934;2023-05-07T01:53:39;12.00;12.00;8.00
69349;PMS5003;64554;43.452;4.934;2023-05-07T01:56:06;13.40;10.00;6.40
69349;PMS5003;64554;43.452;4.934;2023-05-07T01:58:33;12.80;11.00;9.00
69349;PMS5003;64554;43.452;4.934;2023-05-07T02:01:00;11.00;11.00;8.00
69349;PMS5003;64554;43.452;4.934;2023-05-07T02:03:26;15.40;11.80;9.00
69349;PMS5003;64554;43.452;4.934;2023-05-07T02:05:53;10.60;10.60;8.00
69349;PMS5003;64554;43.452;4.934;2023-05-07T02:08:19;11.00;11.00;8.00
69349;PMS5003;64554;43.452;4.934;2023-05-07T02:10:46;12.00;12.00;9.40
69349;PMS5003;64554;43.452;4.934;2023-05-07T02:13:12;12.50;12.50;8.00
69349;PMS5003;64554;43.452;4.934;2023-05-07T02:15:39;11.50;11.50;7.50
69349;PMS5003;64554;43.452;4.934;2023-05-07T02:18:08;11.60;10.00;7.00
69349;PMS5003;64554;43.452;4.934;2023-05-07T02:20:38;12.75;12.50;8.00
69349;PMS5003;64554;43.452;4.934;2023-05-07T02:23:04;15.50;13.50;8.00
69349;PMS5003;64554;43.452;4.934;2023-05-07T02:25:31;15.80;14.00;10.00
69349;PMS5003;64554;43.452;4.934;2023-05-07T02:27:57;18.25;17.00;10.50
69349;PMS5003;64554;43.452;4.934;2023-05-07T02:30:24;14.80;14.20;9.60
69349;PMS5003;64554;43.452;4.934;2023-05-07T02:32:51;15.50;15.50;10.50
69349;PMS5003;64554;43.452;4.934;2023-05-07T02:35:18;19.00;16.60;12.00
69349;PMS5003;64554;43.452;4.934;2023-05-07T02:37:44;22.00;20.00;12.50
69349;PMS5003;64554;43.452;4.934;2023-05-07T02:40:11;18.40;17.60;10.60
69349;PMS5003;64554;43.452;4.934;2023-05-07T02:42:38;23.40;20.40;14.00
69349;PMS5003;64554;43.452;4.934;2023-05-07T02:45:05;23.40;22.40;12.80
69349;PMS5003;64554;43.452;4.934;2023-05-07T02:47:31;22.60;20.60;12.60
69349;PMS5003;64554;43.452;4.934;2023-05-07T02:49:58;22.33;20.33;13.00
69349;PMS5003;64554;43.452;4.934;2023-05-07T02:52:24;21.40;20.20;12.40
69349;PMS5003;64554;43.452;4.934;2023-05-07T02:54:51;21.20;21.20;10.60
69349;PMS5003;64554;43.452;4.934;2023-05-07T02:57:17;23.00;19.00;12.25
69349;PMS5003;64554;43.452;4.934;2023-05-07T02:59:44;20.50;18.25;11.25
69349;PMS5003;64554;43.452;4.934;2023-05-07T03:02:10;21.50;20.25;13.50
69349;PMS5003;64554;43.452;4.934;2023-05-07T03:04:37;20.00;19.00;14.00
69349;PMS5003;64554;43.452;4.934;2023-05-07T03:07:04;27.25;25.00;15.25
69349;PMS5003;64554;43.452;4.934;2023-05-07T03:09:31;19.25;19.25;12.00
69349;PMS5003;64554;43.452;4.934;2023-05-07T03:11:57;30.60;29.00;15.40
69349;PMS5003;64554;43.452;4.934;2023-05-07T03:14:23;26.00;24.00;16.80
69349;PMS5003;64554;43.452;4.934;2023-05-07T03:16:50;22.00;22.00;15.60
69349;PMS5003;64554;43.452;4.934;2023-05-07T03:19:16;33.40;30.40;17.40
69349;PMS5003;64554;43.452;4.934;2023-05-07T03:21:43;33.60;29.80;18.40
69349;PMS5003;64554;43.452;4.934;2023-05-07T03:24:10;27.25;24.50;15.25
69349;PMS5003;64554;43.452;4.934;2023-05-07T03:26:36;31.40;29.00;16.40
69349;PMS5003;64554;43.452;4.934;2023-05-07T03:29:03;30.40;28.60;15.60
69349;PMS5003;64554;43.452;4.934;2023-05-07T03:31:29;24.00;24.00;17.00
69349;PMS5003;64554;43.452;4.934;2023-05-07T03:33:56;22.60;21.00;13.40
69349;PMS5003;64554;43.452;4.934;2023-05-07T03:36:23;23.80;21.40;13.20
69349;PMS5003;64554;43.452;4.934;2023-05-07T03:38:50;23.00;23.00;16.20
69349;PMS5003;64554;43.452;4.934;2023-05-07T03:41:16;23.00;23.00;15.50
69349;PMS5003;64554;43.452;4.934;2023-05-07T03:43:43;20.25;20.00;14.00
69349;PMS5003;64554;43.452;4.934;2023-05-07T03:46:09;22.75;22.00;14.75
69349;PMS5003;64554;43.452;4.934;2023-05-07T03:48:36;25.60;25.60;14.60
69349;PMS5003;64554;43.452;4.934;2023-05-07T03:51:02;23.50;23.50;15.75
69349;PMS5003;64554;43.452;4.934;2023-05-07T03:53:29;25.00;24.00;15.00
69349;PMS5003;64554;43.452;4.934;2023-05-07T03:55:55;23.40;22.40;15.00
69349;PMS5003;64554;43.452;4.934;2023-05-07T03:58:22;20.40;20.40;13.80
69349;PMS5003;64554;43.452;4.934;2023-05-07T04:00:48;24.75;23.75;17.50
69349;PMS5003;64554;43.452;4.934;2023-05-07T04:03:16;22.25;22.25;16.00
69349;PMS5003;64554;43.452;4.934;2023-05-07T04:05:43;25.80;24.80;14.40
69349;PMS5003;64554;43.452;4.934;2023-05-07T04:08:10;23.40;23.40;14.40
69349;PMS5003;64554;43.452;4.934;2023-05-07T04:10:36;29.00;26.00;14.50
69349;PMS5003;64554;43.452;4.934;2023-05-07T04:13:03;25.80;25.80;17.00
69349;PMS5003;64554;43.452;4.934;2023-05-07T04:15:29;24.60;23.60;14.80
69349;PMS5003;64554;43.452;4.934;2023-05-07T04:17:56;29.75;28.00;17.00
69349;PMS5003;64554;43.452;4.934;2023-05-07T04:20:22;32.20;29.80;16.80
69349;PMS5003;64554;43.452;4.934;2023-05-07T04:22:49;26.50;25.50;15.50
69349;PMS5003;64554;43.452;4.934;2023-05-07T04:25:15;28.00;27.00;17.50
69349;PMS5003;64554;43.452;4.934;2023-05-07T04:27:42;31.00;29.50;17.25
69349;PMS5003;64554;43.452;4.934;2023-05-07T04:30:09;32.00;29.00;17.40
69349;PMS5003;64554;43.452;4.934;2023-05-07T04:32:36;34.25;31.25;17.75
69349;PMS5003;64554;43.452;4.934;2023-05-07T04:35:03;24.60;24.60;15.60
69349;PMS5003;64554;43.452;4.934;2023-05-07T04:37:31;29.80;27.60;17.00
69349;PMS5003;64554;43.452;4.934;2023-05-07T04:39:58;29.20;28.00;18.20
69349;PMS5003;64554;43.452;4.934;2023-05-07T04:42:25;34.75;31.25;17.00
69349;PMS5003;64554;43.452;4.934;2023-05-07T04:44:52;32.60;30.60;18.00
69349;PMS5003;64554;43.452;4.934;2023-05-07T04:47:19;26.60;26.60;18.00
69349;PMS5003;64554;43.452;4.934;2023-05-07T04:49:46;27.50;25.00;16.00
69349;PMS5003;64554;43.452;4.934;2023-05-07T04:52:12;25.75;25.50;16.50
69349;PMS5003;64554;43.452;4.934;2023-05-07T04:54:39;29.00;27.00;17.00
69349;PMS5003;64554;43.452;4.934;2023-05-07T04:57:05;27.40;27.40;17.60
69349;PMS5003;64554;43.452;4.934;2023-05-07T04:59:32;31.00;28.00;16.00
69349;PMS5003;64554;43.452;4.934;2023-05-07T05:01:59;25.20;25.20;16.20
69349;PMS5003;64554;43.452;4.934;2023-05-07T05:04:25;28.60;25.60;18.00
69349;PMS5003;64554;43.452;4.934;2023-05-07T05:06:52;25.00;25.00;16.50
69349;PMS5003;64554;43.452;4.934;2023-05-07T05:09:18;25.00;24.50;15.50
69349;PMS5003;64554;43.452;4.934;2023-05-07T05:11:45;26.50;24.00;15.00
69349;PMS5003;64554;43.452;4.934;2023-05-07T05:14:11;26.60;25.60;16.60
69349;PMS5003;64554;43.452;4.934;2023-05-07T05:16:38;26.25;25.50;16.25
69349;PMS5003;64554;43.452;4.934;2023-05-07T05:19:04;27.00;25.00;16.50
69349;PMS5003;64554;43.452;4.934;2023-05-07T05:21:31;28.25;26.50;17.00
69349;PMS5003;64554;43.452;4.934;2023-05-07T05:23:58;21.40;21.40;14.40
69349;PMS5003;64554;43.452;4.934;2023-05-07T05:26:24;21.40;21.40;14.20
69349;PMS5003;64554;43.452;4.934;2023-05-07T05:28:52;23.60;22.60;15.20
69349;PMS5003;64554;43.452;4.934;2023-05-07T05:31:18;25.00;24.00;16.00
69349;PMS5003;64554;43.452;4.934;2023-05-07T05:33:45;27.80;25.80;15.40
69349;PMS5003;64554;43.452;4.934;2023-05-07T05:36:11;21.00;21.00;13.00
69349;PMS5003;64554;43.452;4.934;2023-05-07T05:38:39;22.00;22.00;14.40
69349;PMS5003;64554;43.452;4.934;2023-05-07T05:41:06;20.80;19.00;13.00
69349;PMS5003;64554;43.452;4.934;2023-05-07T05:43:33;24.60;22.20;14.00
69349;PMS5003;64554;43.452;4.934;2023-05-07T05:45:59;25.50;24.00;15.50
69349;PMS5003;64554;43.452;4.934;2023-05-07T05:48:28;24.50;22.50;15.00
69349;PMS5003;64554;43.452;4.934;2023-05-07T05:50:54;33.00;30.40;15.40
69349;PMS5003;64554;43.452;4.934;2023-05-07T05:53:21;26.50;23.50;16.00
69349;PMS5003;64554;43.452;4.934;2023-05-07T05:55:47;27.00;27.00;17.00
69349;PMS5003;64554;43.452;4.934;2023-05-07T05:58:14;27.20;27.20;17.80
69349;PMS5003;64554;43.452;4.934;2023-05-07T06:00:43;23.60;22.00;14.00
69349;PMS5003;64554;43.452;4.934;2023-05-07T06:03:11;28.40;27.00;14.80
69349;PMS5003;64554;43.452;4.934;2023-05-07T06:05:39;30.00;30.00;17.00
69349;PMS5003;64554;43.452;4.934;2023-05-07T06:08:06;24.00;22.40;15.00
69349;PMS5003;64554;43.452;4.934;2023-05-07T06:10:32;22.50;21.50;13.50
69349;PMS5003;64554;43.452;4.934;2023-05-07T06:12:59;26.00;20.40;12.40
69349;PMS5003;64554;43.452;4.934;2023-05-07T06:15:25;20.00;19.00;11.40
69349;PMS5003;64554;43.452;4.934;2023-05-07T06:17:52;23.00;20.00;14.00
69349;PMS5003;64554;43.452;4.934;2023-05-07T06:20:18;25.50;25.50;15.00
69349;PMS5003;64554;43.452;4.934;2023-05-07T06:22:45;20.60;20.60;12.00
69349;PMS5003;64554;43.452;4.934;2023-05-07T06:25:11;21.00;21.00;12.25
69349;PMS5003;64554;43.452;4.934;2023-05-07T06:27:38;27.75;26.75;11.00
69349;PMS5003;64554;43.452;4.934;2023-05-07T06:30:06;21.75;20.75;9.00
69349;PMS5003;64554;43.452;4.934;2023-05-07T06:32:33;21.60;21.60;11.60
69349;PMS5003;64554;43.452;4.934;2023-05-07T06:35:00;16.60;16.60;11.00
69349;PMS5003;64554;43.452;4.934;2023-05-07T06:37:26;14.00;13.60;9.00
69349;PMS5003;64554;43.452;4.934;2023-05-07T06:39:52;14.00;12.00;9.00
69349;PMS5003;64554;43.452;4.934;2023-05-07T06:42:19;15.60;15.00;9.40
69349;PMS5003;64554;43.452;4.934;2023-05-07T06:44:45;17.40;16.60;10.40
69349;PMS5003;64554;43.452;4.934;2023-05-07T06:47:12;20.00;16.40;9.00
69349;PMS5003;64554;43.452;4.934;2023-05-07T06:49:44;16.00;15.00;9.00
69349;PMS5003;64554;43.452;4.934;2023-05-07T06:52:10;16.67;15.00;11.67
69349;PMS5003;64554;43.452;4.934;2023-05-07T06:54:37;14.60;14.00;9.00
69349;PMS5003;64554;43.452;4.934;2023-05-07T06:57:03;14.20;14.20;8.60
69349;PMS5003;64554;43.452;4.934;2023-05-07T06:59:30;14.00;14.00;8.20
69349;PMS5003;64554;43.452;4.934;2023-05-07T07:01:56;13.25;11.75;7.75
69349;PMS5003;64554;43.452;4.934;2023-05-07T07:04:23;13.80;13.80;9.00
69349;PMS5003;64554;43.452;4.934;2023-05-07T07:06:51;10.00;10.00;7.60
69349;PMS5003;64554;43.452;4.934;2023-05-07T07:09:18;14.60;11.20;7.80
69349;PMS5003;64554;43.452;4.934;2023-05-07T07:11:46;11.00;11.00;8.00
69349;PMS5003;64554;43.452;4.934;2023-05-07T07:14:12;10.60;10.60;7.00
69349;PMS5003;64554;43.452;4.934;2023-05-07T07:16:39;13.50;13.00;7.50
69349;PMS5003;64554;43.452;4.934;2023-05-07T07:19:06;12.00;12.00;9.00
69349;PMS5003;64554;43.452;4.934;2023-05-07T07:21:32;10.00;10.00;7.00
69349;PMS5003;64554;43.452;4.934;2023-05-07T07:23:59;11.50;11.50;6.50
69349;PMS5003;64554;43.452;4.934;2023-05-07T07:26:25;11.00;9.00;7.00
69349;PMS5003;64554;43.452;4.934;2023-05-07T07:28:52;12.60;12.60;7.60
69349;PMS5003;64554;43.452;4.934;2023-05-07T07:31:18;10.00;10.00;7.00
69349;PMS5003;64554;43.452;4.934;2023-05-07T07:33:45;10.00;10.00;5.75
69349;PMS5003;64554;43.452;4.934;2023-05-07T07:36:13;10.60;10.60;6.00
69349;PMS5003;64554;43.452;4.934;2023-05-07T07:38:39;10.00;9.00;6.00
69349;PMS5003;64554;43.452;4.934;2023-05-07T07:41:07;9.75;9.75;6.00
69349;PMS5003;64554;43.452;4.934;2023-05-07T07:43:34;9.00;9.00;6.50
69349;PMS5003;64554;43.452;4.934;2023-05-07T07:46:01;8.60;8.60;6.20
69349;PMS5003;64554;43.452;4.934;2023-05-07T07:48:28;8.67;8.67;5.00
69349;PMS5003;64554;43.452;4.934;2023-05-07T07:50:54;9.40;8.20;5.40
69349;PMS5003;64554;43.452;4.934;2023-05-07T07:53:21;8.00;8.00;5.00
69349;PMS5003;64554;43.452;4.934;2023-05-07T07:55:47;8.00;7.00;5.00
69349;PMS5003;64554;43.452;4.934;2023-05-07T07:58:14;9.00;7.00;5.00
69349;PMS5003;64554;43.452;4.934;2023-05-07T08:00:40;9.40;9.40;4.20
69349;PMS5003;64554;43.452;4.934;2023-05-07T08:03:09;7.50;7.00;5.00
69349;PMS5003;64554;43.452;4.934;2023-05-07T08:05:35;8.40;8.00;6.00
69349;PMS5003;64554;43.452;4.934;2023-05-07T08:08:02;5.50;5.50;4.00
69349;PMS5003;64554;43.452;4.934;2023-05-07T08:10:29;7.00;4.00;3.00
69349;PMS5003;64554;43.452;4.934;2023-05-07T08:12:56;7.00;7.00;5.00
69349;PMS5003;64554;43.452;4.934;2023-05-07T08:15:22;10.00;10.00;6.00
69349;PMS5003;64554;43.452;4.934;2023-05-07T08:17:49;7.00;7.00;5.60
69349;PMS5003;64554;43.452;4.934;2023-05-07T08:20:15;6.60;6.00;4.00
69349;PMS5003;64554;43.452;4.934;2023-05-07T08:22:41;6.40;6.40;5.00
69349;PMS5003;64554;43.452;4.934;2023-05-07T08:25:08;7.50;6.00;3.00
69349;PMS5003;64554;43.452;4.934;2023-05-07T08:27:35;5.50;5.50;4.00
69349;PMS5003;64554;43.452;4.934;2023-05-07T08:30:02;5.50;5.50;4.00
69349;PMS5003;64554;43.452;4.934;2023-05-07T08:32:28;6.80;6.80;5.00
69349;PMS5003;64554;43.452;4.934;2023-05-07T08:34:55;8.00;7.00;4.00
69349;PMS5003;64554;43.452;4.934;2023-05-07T08:37:22;7.00;4.60;3.00
69349;PMS5003;64554;43.452;4.934;2023-05-07T08:39:48;4.25;4.25;3.00
69349;PMS5003;64554;43.452;4.934;2023-05-07T08:42:16;5.40;5.40;4.00
69349;PMS5003;64554;43.452;4.934;2023-05-07T08:44:43;6.40;5.00;4.00
69349;PMS5003;64554;43.452;4.934;2023-05-07T08:47:12;7.40;7.40;4.40
69349;PMS5003;64554;43.452;4.934;2023-05-07T08:49:38;8.50;8.50;6.50
69349;PMS5003;64554;43.452;4.934;2023-05-07T08:52:05;10.00;9.00;7.00
69349;PMS5003;64554;43.452;4.934;2023-05-07T08:54:35;11.00;10.40;7.00
69349;PMS5003;64554;43.452;4.934;2023-05-07T08:57:03;11.60;11.60;7.60
69349;PMS5003;64554;43.452;4.934;2023-05-07T08:59:29;13.25;13.25;9.25
69349;PMS5003;64554;43.452;4.934;2023-05-07T09:01:56;18.80;16.40;11.00
69349;PMS5003;64554;43.452;4.934;2023-05-07T09:04:22;16.40;13.80;10.40
69349;PMS5003;64554;43.452;4.934;2023-05-07T09:06:49;18.20;16.20;11.20
69349;PMS5003;64554;43.452;4.934;2023-05-07T09:09:17;21.00;21.00;13.00
69349;PMS5003;64554;43.452;4.934;2023-05-07T09:11:46;26.00;24.00;13.00
69349;PMS5003;64554;43.452;4.934;2023-05-07T09:14:13;17.80;16.80;12.20
69349;PMS5003;64554;43.452;4.934;2023-05-07T09:16:39;20.40;18.80;12.60
69349;PMS5003;64554;43.452;4.934;2023-05-07T09:19:06;19.60;17.60;12.60
69349;PMS5003;64554;43.452;4.934;2023-05-07T09:21:32;20.00;20.00;14.00
69349;PMS5003;64554;43.452;4.934;2023-05-07T09:23:59;21.50;18.75;12.00
69349;PMS5003;64554;43.452;4.934;2023-05-07T09:26:25;21.25;16.50;12.25
69349;PMS5003;64554;43.452;4.934;2023-05-07T09:28:54;23.20;19.00;13.00
69349;PMS5003;64554;43.452;4.934;2023-05-07T09:31:21;15.50;14.50;10.50
69349;PMS5003;64554;43.452;4.934;2023-05-07T09:33:50;17.75;16.75;12.75
69349;PMS5003;64554;43.452;4.934;2023-05-07T09:36:16;20.00;19.00;12.00
69349;PMS5003;64554;43.452;4.934;2023-05-07T09:38:44;19.00;17.75;10.75
69349;PMS5003;64554;43.452;4.934;2023-05-07T09:41:12;21.25;18.25;13.00
69349;PMS5003;64554;43.452;4.934;2023-05-07T09:43:39;21.75;20.00;13.00
69349;PMS5003;64554;43.452;4.934;2023-05-07T09:48:36;16.50;15.50;10.50
69349;PMS5003;64554;43.452;4.934;2023-05-07T09:51:04;8.75;8.75;6.75
69349;PMS5003;64554;43.452;4.934;2023-05-07T09:53:33;6.00;6.00;4.00
69349;PMS5003;64554;43.452;4.934;2023-05-07T09:55:59;8.00;8.00;7.00
69349;PMS5003;64554;43.452;4.934;2023-05-07T09:58:30;5.40;4.40;3.40
69349;PMS5003;64554;43.452;4.934;2023-05-07T10:00:58;4.00;4.00;2.60
69349;PMS5003;64554;43.452;4.934;2023-05-07T10:03:25;4.00;4.00;3.00
69349;PMS5003;64554;43.452;4.934;2023-05-07T10:05:53;4.00;4.00;3.00
69349;PMS5003;64554;43.452;4.934;2023-05-07T10:08:21;5.25;4.25;3.00
69349;PMS5003;64554;43.452;4.934;2023-05-07T10:10:48;4.40;4.40;2.80
69349;PMS5003;64554;43.452;4.934;2023-05-07T10:13:15;5.00;5.00;3.00
69349;PMS5003;64554;43.452;4.934;2023-05-07T10:15:42;12.00;11.00;7.40
69349;PMS5003;64554;43.452;4.934;2023-05-07T10:18:09;25.00;25.00;15.00
69349;PMS5003;64554;43.452;4.934;2023-05-07T10:20:36;4.50;4.50;4.50
69349;PMS5003;64554;43.452;4.934;2023-05-07T10:23:04;6.33;6.33;4.33
69349;PMS5003;64554;43.452;4.934;2023-05-07T10:25:31;7.50;6.00;4.00
69349;PMS5003;64554;43.452;4.934;2023-05-07T10:27:59;7.00;7.00;5.00
69349;PMS5003;64554;43.452;4.934;2023-05-07T10:30:38;7.00;7.00;6.00
69349;PMS5003;64554;43.452;4.934;2023-05-07T10:33:08;6.00;6.00;4.00
69349;PMS5003;64554;43.452;4.934;2023-05-07T10:35:38;6.00;6.00;4.00
69349;PMS5003;64554;43.452;4.934;2023-05-07T10:38:05;5.25;5.00;3.25
69349;PMS5003;64554;43.452;4.934;2023-05-07T10:40:31;6.00;5.00;4.00
69349;PMS5003;64554;43.452;4.934;2023-05-07T10:43:02;6.00;6.00;4.00
69349;PMS5003;64554;43.452;4.934;2023-05-07T10:45:34;6.00;6.00;4.80
69349;PMS5003;64554;43.452;4.934;2023-05-07T10:48:14;8.00;7.00;5.00
69349;PMS5003;64554;43.452;4.934;2023-05-07T10:50:44;4.20;4.20;3.60
69349;PMS5003;64554;43.452;4.934;2023-05-07T10:55:44;5.50;5.50;4.00
69349;PMS5003;64554;43.452;4.934;2023-05-07T10:58:23;6.00;5.00;4.00
69349;PMS5003;64554;43.452;4.934;2023-05-07T11:00:58;4.40;4.40;4.00
69349;PMS5003;64554;43.452;4.934;2023-05-07T11:03:25;4.00;4.00;3.00
69349;PMS5003;64554;43.452;4.934;2023-05-07T11:06:08;6.00;6.00;5.00
69349;PMS5003;64554;43.452;4.934;2023-05-07T11:11:36;6.00;6.00;4.50
69349;PMS5003;64554;43.452;4.934;2023-05-07T11:14:06;5.00;5.00;3.00
69349;PMS5003;64554;43.452;4.934;2023-05-07T11:16:33;5.00;5.00;4.00
69349;PMS5003;64554;43.452;4.934;2023-05-07T11:19:02;5.00;5.00;3.25
69349;PMS5003;64554;43.452;4.934;2023-05-07T11:24:01;5.50;5.50;4.50
69349;PMS5003;64554;43.452;4.934;2023-05-07T11:26:29;3.75;3.75;3.25
69349;PMS5003;64554;43.452;4.934;2023-05-07T11:28:56;8.00;8.00;6.00
69349;PMS5003;64554;43.452;4.934;2023-05-07T11:31:24;6.40;5.40;4.40
69349;PMS5003;64554;43.452;4.934;2023-05-07T11:33:52;7.00;7.00;6.00
69349;PMS5003;64554;43.452;4.934;2023-05-07T11:36:21;6.00;6.00;5.00
69349;PMS5003;64554;43.452;4.934;2023-05-07T11:38:47;4.75;4.75;3.75
69349;PMS5003;64554;43.452;4.934;2023-05-07T11:41:15;6.00;6.00;4.40
69349;PMS5003;64554;43.452;4.934;2023-05-07T11:44:03;6.60;6.60;5.00
69349;PMS5003;64554;43.452;4.934;2023-05-07T11:46:29;8.00;8.00;6.00
69349;PMS5003;64554;43.452;4.934;2023-05-07T11:48:56;8.00;8.00;6.00
69349;PMS5003;64554;43.452;4.934;2023-05-07T11:51:23;8.00;8.00;6.00
69349;PMS5003;64554;43.452;4.934;2023-05-07T11:53:50;6.75;6.75;4.00
69349;PMS5003;64554;43.452;4.934;2023-05-07T11:56:17;9.00;7.60;5.00
69349;PMS5003;64554;43.452;4.934;2023-05-07T11:58:45;7.25;6.00;4.25
69349;PMS5003;64554;43.452;4.934;2023-05-07T12:01:12;9.25;7.00;6.00
69349;PMS5003;64554;43.452;4.934;2023-05-07T12:03:40;5.00;5.00;5.00
69349;PMS5003;64554;43.452;4.934;2023-05-07T12:06:13;8.00;8.00;7.00
69349;PMS5003;64554;43.452;4.934;2023-05-07T12:08:40;12.60;11.60;7.40
69349;PMS5003;64554;43.452;4.934;2023-05-07T12:11:08;7.00;7.00;6.00
69349;PMS5003;64554;43.452;4.934;2023-05-07T12:13:35;8.25;7.00;5.00
69349;PMS5003;64554;43.452;4.934;2023-05-07T12:16:02;6.80;6.80;4.80
69349;PMS5003;64554;43.452;4.934;2023-05-07T12:18:30;8.00;7.00;5.00
69349;PMS5003;64554;43.452;4.934;2023-05-07T12:20:56;8.25;7.25;5.25
69349;PMS5003;64554;43.452;4.934;2023-05-07T12:23:24;8.50;8.50;6.50
69349;PMS5003;64554;43.452;4.934;2023-05-07T12:25:50;10.75;9.00;7.25
69349;PMS5003;64554;43.452;4.934;2023-05-07T12:28:17;8.00;8.00;6.00
69349;PMS5003;64554;43.452;4.934;2023-05-07T12:30:45;6.00;6.00;4.50
69349;PMS5003;64554;43.452;4.934;2023-05-07T12:33:13;5.00;5.00;4.00
69349;PMS5003;64554;43.452;4.934;2023-05-07T12:35:42;5.50;5.50;4.00
69349;PMS5003;64554;43.452;4.934;2023-05-07T12:38:12;6.75;6.75;5.00
69349;PMS5003;64554;43.452;4.934;2023-05-07T12:40:39;5.00;5.00;4.00
69349;PMS5003;64554;43.452;4.934;2023-05-07T12:43:07;6.00;6.00;5.40
69349;PMS5003;64554;43.452;4.934;2023-05-07T12:45:37;7.00;7.00;5.00
69349;PMS5003;64554;43.452;4.934;2023-05-07T12:48:09;9.00;8.00;6.00
69349;PMS5003;64554;43.452;4.934;2023-05-07T12:50:36;2.80;2.80;1.80
69349;PMS5003;64554;43.452;4.934;2023-05-07T12:53:03;4.50;4.00;2.00
69349;PMS5003;64554;43.452;4.934;2023-05-07T12:55:32;3.80;3.80;3.00
69349;PMS5003;64554;43.452;4.934;2023-05-07T12:58:00;4.00;4.00;3.00
69349;PMS5003;64554;43.452;4.934;2023-05-07T13:00:34;3.00;3.00;1.50
69349;PMS5003;64554;43.452;4.934;2023-05-07T13:03:00;6.00;4.00;3.60
69349;PMS5003;64554;43.452;4.934;2023-05-07T13:05:27;4.00;4.00;3.00
69349;PMS5003;64554;43.452;4.934;2023-05-07T13:07:54;3.60;2.60;1.80
69349;PMS5003;64554;43.452;4.934;2023-05-07T13:10:24;4.00;4.00;3.00
69349;PMS5003;64554;43.452;4.934;2023-05-07T13:12:50;7.00;5.00;4.00
69349;PMS5003;64554;43.452;4.934;2023-05-07T13:15:17;4.60;4.60;4.00
69349;PMS5003;64554;43.452;4.934;2023-05-07T13:17:44;2.20;2.20;1.40
69349;PMS5003;64554;43.452;4.934;2023-05-07T13:20:11;2.60;2.60;2.00
69349;PMS5003;64554;43.452;4.934;2023-05-07T13:22:40;5.00;5.00;3.00
69349;PMS5003;64554;43.452;4.934;2023-05-07T13:25:07;6.00;5.00;4.00
69349;PMS5003;64554;43.452;4.934;2023-05-07T13:27:33;5.75;4.75;3.75
69349;PMS5003;64554;43.452;4.934;2023-05-07T13:30:03;3.40;3.40;1.40
69349;PMS5003;64554;43.452;4.934;2023-05-07T13:32:30;4.20;4.20;2.80
69349;PMS5003;64554;43.452;4.934;2023-05-07T13:34:58;6.50;5.50;4.00
69349;PMS5003;64554;43.452;4.934;2023-05-07T13:37:24;5.00;4.00;3.00
69349;PMS5003;64554;43.452;4.934;2023-05-07T13:39:51;3.25;3.25;3.00
69349;PMS5003;64554;43.452;4.934;2023-05-07T13:42:17;4.50;4.50;2.50
69349;PMS5003;64554;43.452;4.934;2023-05-07T13:44:44;6.40;6.40;5.00
69349;PMS5003;64554;43.452;4.934;2023-05-07T13:47:14;7.00;7.00;5.60
69349;PMS5003;64554;43.452;4.934;2023-05-07T13:49:40;5.00;5.00;4.00
69349;PMS5003;64554;43.452;4.934;2023-05-07T13:52:07;6.00;6.00;5.00
69349;PMS5003;64554;43.452;4.934;2023-05-07T13:54:33;6.00;6.00;5.00
69349;PMS5003;64554;43.452;4.934;2023-05-07T13:57:00;5.40;5.40;4.00
69349;PMS5003;64554;43.452;4.934;2023-05-07T13:59:27;3.80;3.80;3.00
69349;PMS5003;64554;43.452;4.934;2023-05-07T14:01:54;4.00;4.00;2.00
69349;PMS5003;64554;43.452;4.934;2023-05-07T14:04:21;8.50;7.00;5.50
69349;PMS5003;64554;43.452;4.934;2023-05-07T14:06:47;10.40;9.40;7.00
69349;PMS5003;64554;43.452;4.934;2023-05-07T14:09:14;7.00;7.00;5.00
69349;PMS5003;64554;43.452;4.934;2023-05-07T14:11:43;5.00;5.00;4.00